sensor_id;sensor_type;location;lat;lon;timestamp;pressure;altitude;pressure_sealevel;temperature;humidity
55171;BME280;41060;47.510;8.680;2023-05-12T00:00:57;96754.56;;;14.98;54.05
55171;BME280;41060;47.510;8.680;2023-05-12T00:03:25;96748.69;;;15.12;53.58
55171;BME280;41060;47.510;8.680;2023-05-12T00:05:53;96753.41;;;15.01;53.82
55171;BME280;41060;47.510;8.680;2023-05-12T00:08:21;96748.41;;;14.98;53.91
55171;BME280;41060;47.510;8.680;2023-05-12T00:10:50;96743.31;;;14.86;54.37
55171;BME280;41060;47.510;8.680;2023-05-12T00:13:16;96743.38;;;14.94;54.13
55171;BME280;41060;47.510;8.680;2023-05-12T00:15:48;96735.78;;;15.08;53.70
55171;BME280;41060;47.510;8.680;2023-05-12T00:18:15;96736.75;;;15.07;53.72
55171;BME280;41060;47.510;8.680;2023-05-12T00:20:43;96728.75;;;15.07;54.11
55171;BME280;41060;47.510;8.680;2023-05-12T00:23:10;96741.94;;;15.08;53.67
55171;BME280;41060;47.510;8.680;2023-05-12T00:25:37;96746.22;;;15.01;54.12
55171;BME280;41060;47.510;8.680;2023-05-12T00:28:04;96742.38;;;14.95;54.48
55171;BME280;41060;47.510;8.680;2023-05-12T00:30:31;96748.75;;;15.03;54.32
55171;BME280;41060;47.510;8.680;2023-05-12T00:32:57;96726.94;;;15.07;53.88
55171;BME280;41060;47.510;8.680;2023-05-12T00:35:24;96738.66;;;15.14;54.11
55171;BME280;41060;47.510;8.680;2023-05-12T00:37:53;96736.94;;;15.05;54.51
55171;BME280;41060;47.510;8.680;2023-05-12T00:40:19;96740.66;;;14.86;55.10
55171;BME280;41060;47.510;8.680;2023-05-12T00:42:48;96738.94;;;14.77;55.40
55171;BME280;41060;47.510;8.680;2023-05-12T00:45:15;96742.28;;;14.79;55.64
55171;BME280;41060;47.510;8.680;2023-05-12T00:47:42;96740.41;;;14.72;55.83
55171;BME280;41060;47.510;8.680;2023-05-12T00:50:09;96720.28;;;14.77;55.45
55171;BME280;41060;47.510;8.680;2023-05-12T00:52:36;96726.09;;;14.99;55.00
55171;BME280;41060;47.510;8.680;2023-05-12T00:55:05;96730.66;;;15.14;54.44
55171;BME280;41060;47.510;8.680;2023-05-12T00:57:32;96719.34;;;15.12;54.19
55171;BME280;41060;47.510;8.680;2023-05-12T01:00:02;96724.72;;;15.28;54.45
55171;BME280;41060;47.510;8.680;2023-05-12T01:02:29;96734.28;;;15.39;53.67
55171;BME280;41060;47.510;8.680;2023-05-12T01:04:55;96722.47;;;15.42;53.15
55171;BME280;41060;47.510;8.680;2023-05-12T01:07:24;96726.34;;;15.21;53.29
55171;BME280;41060;47.510;8.680;2023-05-12T01:09:53;96725.78;;;15.10;53.63
55171;BME280;41060;47.510;8.680;2023-05-12T01:12:21;96725.09;;;15.08;54.09
55171;BME280;41060;47.510;8.680;2023-05-12T01:14:49;96721.09;;;15.04;53.56
55171;BME280;41060;47.510;8.680;2023-05-12T01:17:19;96720.03;;;14.88;54.23
55171;BME280;41060;47.510;8.680;2023-05-12T01:19:47;96721.56;;;14.99;53.95
55171;BME280;41060;47.510;8.680;2023-05-12T01:22:16;96716.03;;;14.92;54.25
55171;BME280;41060;47.510;8.680;2023-05-12T01:24:45;96714.41;;;15.00;53.98
55171;BME280;41060;47.510;8.680;2023-05-12T01:27:15;96719.66;;;14.83;54.50
55171;BME280;41060;47.510;8.680;2023-05-12T01:29:44;96713.66;;;14.81;54.78
55171;BME280;41060;47.510;8.680;2023-05-12T01:32:12;96715.97;;;14.84;54.97
55171;BME280;41060;47.510;8.680;2023-05-12T01:34:39;96715.44;;;14.73;55.30
55171;BME280;41060;47.510;8.680;2023-05-12T01:37:10;96714.47;;;14.56;55.35
55171;BME280;41060;47.510;8.680;2023-05-12T01:39:37;96712.44;;;14.50;55.69
55171;BME280;41060;47.510;8.680;2023-05-12T01:42:04;96711.56;;;14.67;55.48
55171;BME280;41060;47.510;8.680;2023-05-12T01:44:33;96712.84;;;14.89;55.01
55171;BME280;41060;47.510;8.680;2023-05-12T01:47:00;96709.50;;;14.87;54.65
55171;BME280;41060;47.510;8.680;2023-05-12T01:49:27;96722.34;;;14.83;55.04
55171;BME280;41060;47.510;8.680;2023-05-12T01:51:54;96719.19;;;14.88;55.23
55171;BME280;41060;47.510;8.680;2023-05-12T01:54:20;96723.38;;;14.90;54.86
55171;BME280;41060;47.510;8.680;2023-05-12T01:56:47;96721.84;;;14.88;55.32
55171;BME280;41060;47.510;8.680;2023-05-12T01:59:14;96719.47;;;14.85;55.19
55171;BME280;41060;47.510;8.680;2023-05-12T02:01:42;96730.44;;;14.74;55.65
55171;BME280;41060;47.510;8.680;2023-05-12T02:04:09;96717.03;;;14.66;55.53
55171;BME280;41060;47.510;8.680;2023-05-12T02:06:36;96724.25;;;14.73;55.15
55171;BME280;41060;47.510;8.680;2023-05-12T02:09:02;96718.03;;;14.65;55.29
55171;BME280;41060;47.510;8.680;2023-05-12T02:11:29;96719.72;;;14.66;55.93
55171;BME280;41060;47.510;8.680;2023-05-12T02:13:56;96723.56;;;14.71;55.57
55171;BME280;41060;47.510;8.680;2023-05-12T02:16:23;96722.47;;;14.82;55.18
55171;BME280;41060;47.510;8.680;2023-05-12T02:18:51;96704.88;;;14.89;54.84
55171;BME280;41060;47.510;8.680;2023-05-12T02:21:21;96723.44;;;15.07;54.50
55171;BME280;41060;47.510;8.680;2023-05-12T02:23:47;96717.94;;;15.08;54.55
55171;BME280;41060;47.510;8.680;2023-05-12T02:26:14;96714.03;;;14.94;54.33
55171;BME280;41060;47.510;8.680;2023-05-12T02:28:41;96709.47;;;14.79;54.93
55171;BME280;41060;47.510;8.680;2023-05-12T02:31:07;96713.38;;;14.92;54.62
55171;BME280;41060;47.510;8.680;2023-05-12T02:33:34;96713.78;;;15.06;54.19
55171;BME280;41060;47.510;8.680;2023-05-12T02:36:03;96703.47;;;15.11;54.04
55171;BME280;41060;47.510;8.680;2023-05-12T02:38:30;96717.91;;;15.26;53.46
55171;BME280;41060;47.510;8.680;2023-05-12T02:40:56;96724.72;;;15.28;53.99
55171;BME280;41060;47.510;8.680;2023-05-12T02:43:23;96716.94;;;15.09;54.54
55171;BME280;41060;47.510;8.680;2023-05-12T02:45:50;96718.59;;;15.02;54.23
55171;BME280;41060;47.510;8.680;2023-05-12T02:48:16;96715.13;;;14.76;55.01
55171;BME280;41060;47.510;8.680;2023-05-12T02:50:44;96719.34;;;14.61;55.27
55171;BME280;41060;47.510;8.680;2023-05-12T02:53:11;96717.91;;;14.48;55.60
55171;BME280;41060;47.510;8.680;2023-05-12T02:55:38;96723.66;;;14.36;56.15
55171;BME280;41060;47.510;8.680;2023-05-12T02:58:06;96701.63;;;14.08;57.40
55171;BME280;41060;47.510;8.680;2023-05-12T03:00:33;96709.19;;;14.03;57.61
55171;BME280;41060;47.510;8.680;2023-05-12T03:02:59;96713.34;;;14.15;57.26
55171;BME280;41060;47.510;8.680;2023-05-12T03:05:27;96710.28;;;14.28;57.02
55171;BME280;41060;47.510;8.680;2023-05-12T03:07:53;96713.06;;;14.44;56.25
55171;BME280;41060;47.510;8.680;2023-05-12T03:10:21;96713.81;;;14.54;55.75
55171;BME280;41060;47.510;8.680;2023-05-12T03:12:48;96710.41;;;14.44;55.86
55171;BME280;41060;47.510;8.680;2023-05-12T03:15:15;96704.25;;;14.26;56.62
55171;BME280;41060;47.510;8.680;2023-05-12T03:17:41;96715.59;;;14.28;56.63
55171;BME280;41060;47.510;8.680;2023-05-12T03:20:10;96718.69;;;14.15;56.94
55171;BME280;41060;47.510;8.680;2023-05-12T03:22:37;96709.66;;;14.34;56.24
55171;BME280;41060;47.510;8.680;2023-05-12T03:25:05;96707.69;;;14.36;55.82
55171;BME280;41060;47.510;8.680;2023-05-12T03:27:34;96710.13;;;14.29;56.35
55171;BME280;41060;47.510;8.680;2023-05-12T03:30:04;96708.03;;;14.41;55.49
55171;BME280;41060;47.510;8.680;2023-05-12T03:32:31;96705.78;;;14.46;55.42
55171;BME280;41060;47.510;8.680;2023-05-12T03:34:58;96712.66;;;14.31;55.95
55171;BME280;41060;47.510;8.680;2023-05-12T03:37:24;96706.34;;;14.32;55.85
55171;BME280;41060;47.510;8.680;2023-05-12T03:39:51;96709.22;;;14.21;55.89
55171;BME280;41060;47.510;8.680;2023-05-12T03:42:20;96710.13;;;14.29;55.86
55171;BME280;41060;47.510;8.680;2023-05-12T03:44:50;96697.19;;;14.34;55.69
55171;BME280;41060;47.510;8.680;2023-05-12T03:47:16;96701.03;;;14.40;55.69
55171;BME280;41060;47.510;8.680;2023-05-12T03:49:44;96701.59;;;14.26;56.03
55171;BME280;41060;47.510;8.680;2023-05-12T03:52:10;96702.97;;;14.30;56.08
55171;BME280;41060;47.510;8.680;2023-05-12T03:54:37;96706.63;;;14.29;56.30
55171;BME280;41060;47.510;8.680;2023-05-12T03:57:05;96705.50;;;14.31;56.20
55171;BME280;41060;47.510;8.680;2023-05-12T03:59:32;96700.81;;;14.33;55.89
55171;BME280;41060;47.510;8.680;2023-05-12T04:02:00;96700.75;;;14.25;56.00
55171;BME280;41060;47.510;8.680;2023-05-12T04:04:27;96697.94;;;14.27;56.07
55171;BME280;41060;47.510;8.680;2023-05-12T04:06:54;96697.44;;;14.23;55.67
55171;BME280;41060;47.510;8.680;2023-05-12T04:09:20;96690.59;;;14.21;55.67
55171;BME280;41060;47.510;8.680;2023-05-12T04:11:50;96694.22;;;14.37;55.06
55171;BME280;41060;47.510;8.680;2023-05-12T04:14:16;96689.41;;;14.41;55.00
55171;BME280;41060;47.510;8.680;2023-05-12T04:16:43;96698.56;;;14.38;54.93
55171;BME280;41060;47.510;8.680;2023-05-12T04:19:11;96696.81;;;14.55;56.62
55171;BME280;41060;47.510;8.680;2023-05-12T04:21:40;96701.25;;;14.72;56.27
55171;BME280;41060;47.510;8.680;2023-05-12T04:24:07;96703.38;;;14.61;55.26
55171;BME280;41060;47.510;8.680;2023-05-12T04:26:35;96672.28;;;14.43;55.39
55171;BME280;41060;47.510;8.680;2023-05-12T04:29:01;96707.84;;;14.60;55.63
55171;BME280;41060;47.510;8.680;2023-05-12T04:31:28;96713.13;;;14.78;55.96
55171;BME280;41060;47.510;8.680;2023-05-12T04:33:55;96710.16;;;14.81;55.76
55171;BME280;41060;47.510;8.680;2023-05-12T04:36:23;96713.50;;;14.83;54.97
55171;BME280;41060;47.510;8.680;2023-05-12T04:38:49;96717.00;;;14.57;55.19
55171;BME280;41060;47.510;8.680;2023-05-12T04:41:16;96724.03;;;14.41;55.69
55171;BME280;41060;47.510;8.680;2023-05-12T04:43:43;96720.00;;;14.37;56.14
55171;BME280;41060;47.510;8.680;2023-05-12T04:46:09;96723.72;;;14.44;55.67
55171;BME280;41060;47.510;8.680;2023-05-12T04:48:36;96716.34;;;14.64;56.08
55171;BME280;41060;47.510;8.680;2023-05-12T04:51:06;96718.78;;;14.75;55.50
55171;BME280;41060;47.510;8.680;2023-05-12T04:53:34;96721.06;;;14.95;54.75
55171;BME280;41060;47.510;8.680;2023-05-12T04:56:01;96726.53;;;14.94;54.97
55171;BME280;41060;47.510;8.680;2023-05-12T04:58:27;96726.03;;;14.90;54.93
55171;BME280;41060;47.510;8.680;2023-05-12T05:00:54;96726.63;;;14.76;54.50
55171;BME280;41060;47.510;8.680;2023-05-12T05:03:21;96722.69;;;14.88;54.90
55171;BME280;41060;47.510;8.680;2023-05-12T05:05:48;96726.03;;;14.90;54.37
55171;BME280;41060;47.510;8.680;2023-05-12T05:08:14;96732.50;;;14.88;54.56
55171;BME280;41060;47.510;8.680;2023-05-12T05:10:43;96732.41;;;14.72;54.56
55171;BME280;41060;47.510;8.680;2023-05-12T05:13:12;96733.94;;;14.74;54.71
55171;BME280;41060;47.510;8.680;2023-05-12T05:15:39;96734.03;;;14.90;54.61
55171;BME280;41060;47.510;8.680;2023-05-12T05:18:06;96734.63;;;14.84;54.77
55171;BME280;41060;47.510;8.680;2023-05-12T05:20:33;96735.81;;;14.82;55.57
55171;BME280;41060;47.510;8.680;2023-05-12T05:23:00;96735.97;;;14.80;55.11
55171;BME280;41060;47.510;8.680;2023-05-12T05:25:27;96740.50;;;14.88;55.40
55171;BME280;41060;47.510;8.680;2023-05-12T05:27:55;96738.56;;;14.72;55.08
55171;BME280;41060;47.510;8.680;2023-05-12T05:30:22;96740.09;;;14.75;55.09
55171;BME280;41060;47.510;8.680;2023-05-12T05:32:49;96743.22;;;14.70;54.54
55171;BME280;41060;47.510;8.680;2023-05-12T05:35:16;96737.31;;;14.84;54.75
55171;BME280;41060;47.510;8.680;2023-05-12T05:37:42;96742.38;;;14.70;55.61
55171;BME280;41060;47.510;8.680;2023-05-12T05:40:11;96739.75;;;14.78;55.77
55171;BME280;41060;47.510;8.680;2023-05-12T05:42:37;96727.69;;;14.91;55.30
55171;BME280;41060;47.510;8.680;2023-05-12T05:45:07;96733.34;;;14.88;54.80
55171;BME280;41060;47.510;8.680;2023-05-12T05:47:34;96728.31;;;14.85;55.76
55171;BME280;41060;47.510;8.680;2023-05-12T05:50:01;96731.31;;;14.82;55.09
55171;BME280;41060;47.510;8.680;2023-05-12T05:52:28;96738.69;;;14.88;54.16
55171;BME280;41060;47.510;8.680;2023-05-12T05:54:57;96737.28;;;15.10;53.55
55171;BME280;41060;47.510;8.680;2023-05-12T05:57:24;96741.88;;;15.18;53.78
55171;BME280;41060;47.510;8.680;2023-05-12T05:59:52;96743.38;;;15.20;54.06
55171;BME280;41060;47.510;8.680;2023-05-12T06:02:20;96738.41;;;15.25;54.48
55171;BME280;41060;47.510;8.680;2023-05-12T06:04:47;96746.22;;;15.19;54.51
55171;BME280;41060;47.510;8.680;2023-05-12T06:07:16;96744.53;;;15.18;54.56
55171;BME280;41060;47.510;8.680;2023-05-12T06:09:43;96747.44;;;15.07;53.91
55171;BME280;41060;47.510;8.680;2023-05-12T06:12:10;96740.19;;;14.91;54.90
55171;BME280;41060;47.510;8.680;2023-05-12T06:14:36;96695.03;;;14.64;54.69
55171;BME280;41060;47.510;8.680;2023-05-12T06:17:04;96749.19;;;14.90;54.30
55171;BME280;41060;47.510;8.680;2023-05-12T06:19:32;96748.56;;;14.96;54.17
55171;BME280;41060;47.510;8.680;2023-05-12T06:21:59;96744.19;;;15.13;54.40
55171;BME280;41060;47.510;8.680;2023-05-12T06:24:26;96747.53;;;15.23;53.67
55171;BME280;41060;47.510;8.680;2023-05-12T06:26:53;96750.91;;;15.25;53.49
55171;BME280;41060;47.510;8.680;2023-05-12T06:29:19;96754.44;;;15.33;53.21
55171;BME280;41060;47.510;8.680;2023-05-12T06:31:46;96751.94;;;15.32;53.68
55171;BME280;41060;47.510;8.680;2023-05-12T06:34:13;96755.53;;;15.23;53.36
55171;BME280;41060;47.510;8.680;2023-05-12T06:36:41;96749.06;;;15.25;53.48
55171;BME280;41060;47.510;8.680;2023-05-12T06:39:08;96763.09;;;15.27;53.31
55171;BME280;41060;47.510;8.680;2023-05-12T06:41:34;96753.44;;;15.34;52.60
55171;BME280;41060;47.510;8.680;2023-05-12T06:44:01;96731.50;;;15.15;53.58
55171;BME280;41060;47.510;8.680;2023-05-12T06:46:28;96742.09;;;15.07;53.53
55171;BME280;41060;47.510;8.680;2023-05-12T06:48:55;96762.41;;;15.25;53.85
55171;BME280;41060;47.510;8.680;2023-05-12T06:51:21;96754.25;;;15.27;53.69
55171;BME280;41060;47.510;8.680;2023-05-12T06:53:50;96759.63;;;15.09;53.56
55171;BME280;41060;47.510;8.680;2023-05-12T06:56:16;96760.41;;;15.02;53.53
55171;BME280;41060;47.510;8.680;2023-05-12T06:58:43;96753.81;;;15.14;54.56
55171;BME280;41060;47.510;8.680;2023-05-12T07:01:10;96756.91;;;15.27;53.87
55171;BME280;41060;47.510;8.680;2023-05-12T07:03:36;96757.75;;;15.27;53.76
55171;BME280;41060;47.510;8.680;2023-05-12T07:06:03;96737.63;;;15.41;53.22
55171;BME280;41060;47.510;8.680;2023-05-12T07:08:30;96757.00;;;15.43;54.04
55171;BME280;41060;47.510;8.680;2023-05-12T07:10:59;96756.63;;;15.38;54.69
55171;BME280;41060;47.510;8.680;2023-05-12T07:13:26;96751.00;;;15.49;53.85
55171;BME280;41060;47.510;8.680;2023-05-12T07:15:53;96748.84;;;15.53;52.80
55171;BME280;41060;47.510;8.680;2023-05-12T07:18:22;96748.94;;;15.35;52.27
55171;BME280;41060;47.510;8.680;2023-05-12T07:20:48;96752.16;;;15.47;52.57
55171;BME280;41060;47.510;8.680;2023-05-12T07:23:15;96751.81;;;15.42;52.67
55171;BME280;41060;47.510;8.680;2023-05-12T07:25:44;96747.16;;;15.52;52.86
55171;BME280;41060;47.510;8.680;2023-05-12T07:28:12;96751.06;;;15.73;51.66
55171;BME280;41060;47.510;8.680;2023-05-12T07:30:40;96742.44;;;15.80;50.49
55171;BME280;41060;47.510;8.680;2023-05-12T07:33:06;96739.06;;;15.78;50.19
55171;BME280;41060;47.510;8.680;2023-05-12T07:35:33;96746.59;;;15.82;49.99
55171;BME280;41060;47.510;8.680;2023-05-12T07:38:00;96744.44;;;15.94;50.19
55171;BME280;41060;47.510;8.680;2023-05-12T07:40:27;96745.09;;;15.88;49.98
55171;BME280;41060;47.510;8.680;2023-05-12T07:42:54;96744.63;;;15.92;50.08
55171;BME280;41060;47.510;8.680;2023-05-12T07:45:22;96751.13;;;15.98;50.17
55171;BME280;41060;47.510;8.680;2023-05-12T07:47:49;96745.28;;;15.94;49.84
55171;BME280;41060;47.510;8.680;2023-05-12T07:50:16;96742.94;;;15.91;49.34
55171;BME280;41060;47.510;8.680;2023-05-12T07:52:47;96742.91;;;15.83;50.09
55171;BME280;41060;47.510;8.680;2023-05-12T07:55:15;96702.56;;;15.86;50.61
55171;BME280;41060;47.510;8.680;2023-05-12T07:57:41;96734.66;;;16.43;49.95
55171;BME280;41060;47.510;8.680;2023-05-12T08:00:09;96744.19;;;16.21;48.65
55171;BME280;41060;47.510;8.680;2023-05-12T08:02:41;96737.84;;;16.30;49.05
55171;BME280;41060;47.510;8.680;2023-05-12T08:05:09;96723.66;;;16.22;49.04
55171;BME280;41060;47.510;8.680;2023-05-12T08:07:36;96748.16;;;16.25;49.38
55171;BME280;41060;47.510;8.680;2023-05-12T08:10:03;96742.84;;;16.41;49.36
55171;BME280;41060;47.510;8.680;2023-05-12T08:12:30;96737.84;;;16.38;49.23
55171;BME280;41060;47.510;8.680;2023-05-12T08:14:57;96751.19;;;16.55;49.05
55171;BME280;41060;47.510;8.680;2023-05-12T08:17:24;96742.00;;;16.65;48.61
55171;BME280;41060;47.510;8.680;2023-05-12T08:19:52;96738.31;;;16.82;49.20
55171;BME280;41060;47.510;8.680;2023-05-12T08:22:19;96737.47;;;16.82;47.80
55171;BME280;41060;47.510;8.680;2023-05-12T08:24:45;96730.28;;;16.74;47.90
55171;BME280;41060;47.510;8.680;2023-05-12T08:27:12;96722.75;;;16.70;47.66
55171;BME280;41060;47.510;8.680;2023-05-12T08:29:39;96740.81;;;16.76;48.23
55171;BME280;41060;47.510;8.680;2023-05-12T08:32:06;96740.84;;;16.52;48.25
55171;BME280;41060;47.510;8.680;2023-05-12T08:34:33;96743.84;;;16.57;49.15
55171;BME280;41060;47.510;8.680;2023-05-12T08:37:01;96736.13;;;16.70;48.35
55171;BME280;41060;47.510;8.680;2023-05-12T08:39:28;96749.84;;;16.67;47.95
55171;BME280;41060;47.510;8.680;2023-05-12T08:42:02;96723.44;;;16.72;48.84
55171;BME280;41060;47.510;8.680;2023-05-12T08:44:36;96744.66;;;16.98;46.82
55171;BME280;41060;47.510;8.680;2023-05-12T08:47:04;96742.47;;;17.01;45.92
55171;BME280;41060;47.510;8.680;2023-05-12T08:49:32;96748.13;;;17.06;45.67
55171;BME280;41060;47.510;8.680;2023-05-12T08:52:02;96749.47;;;17.02;45.99
55171;BME280;41060;47.510;8.680;2023-05-12T08:54:29;96745.13;;;17.01;46.84
55171;BME280;41060;47.510;8.680;2023-05-12T08:56:56;96733.22;;;17.20;45.60
55171;BME280;41060;47.510;8.680;2023-05-12T08:59:23;96746.47;;;17.13;45.55
55171;BME280;41060;47.510;8.680;2023-05-12T09:01:50;96739.13;;;16.91;45.40
55171;BME280;41060;47.510;8.680;2023-05-12T09:04:18;96744.66;;;16.81;45.81
55171;BME280;41060;47.510;8.680;2023-05-12T09:06:45;96739.28;;;16.89;45.96
55171;BME280;41060;47.510;8.680;2023-05-12T09:09:15;96739.22;;;17.22;46.12
55171;BME280;41060;47.510;8.680;2023-05-12T09:11:43;96729.56;;;17.21;45.41
55171;BME280;41060;47.510;8.680;2023-05-12T09:14:16;96741.75;;;17.15;46.27
55171;BME280;41060;47.510;8.680;2023-05-12T09:16:46;96724.06;;;17.45;45.48
55171;BME280;41060;47.510;8.680;2023-05-12T09:19:18;96734.63;;;17.78;45.25
55171;BME280;41060;47.510;8.680;2023-05-12T09:21:46;96741.59;;;17.56;43.90
55171;BME280;41060;47.510;8.680;2023-05-12T09:24:14;96737.44;;;17.53;43.04
55171;BME280;41060;47.510;8.680;2023-05-12T09:26:45;96738.22;;;17.62;42.67
55171;BME280;41060;47.510;8.680;2023-05-12T09:29:13;96740.47;;;17.50;44.60
55171;BME280;41060;47.510;8.680;2023-05-12T09:31:48;96728.84;;;17.27;45.08
55171;BME280;41060;47.510;8.680;2023-05-12T09:34:17;96735.09;;;17.11;45.18
55171;BME280;41060;47.510;8.680;2023-05-12T09:36:43;96732.72;;;17.16;44.82
55171;BME280;41060;47.510;8.680;2023-05-12T09:39:11;96732.47;;;17.42;45.03
55171;BME280;41060;47.510;8.680;2023-05-12T09:41:40;96731.94;;;17.47;44.12
55171;BME280;41060;47.510;8.680;2023-05-12T09:44:08;96719.56;;;17.46;44.08
55171;BME280;41060;47.510;8.680;2023-05-12T09:46:36;96711.41;;;17.70;44.72
55171;BME280;41060;47.510;8.680;2023-05-12T09:49:04;96722.53;;;17.82;44.63
55171;BME280;41060;47.510;8.680;2023-05-12T09:51:31;96721.22;;;17.86;45.27
55171;BME280;41060;47.510;8.680;2023-05-12T09:53:58;96717.78;;;18.00;44.14
55171;BME280;41060;47.510;8.680;2023-05-12T09:56:27;96712.94;;;18.41;43.45
55171;BME280;41060;47.510;8.680;2023-05-12T09:58:56;96719.56;;;18.53;43.11
55171;BME280;41060;47.510;8.680;2023-05-12T10:01:23;96718.56;;;18.31;41.71
55171;BME280;41060;47.510;8.680;2023-05-12T10:03:51;96716.31;;;18.58;41.55
55171;BME280;41060;47.510;8.680;2023-05-12T10:06:21;96713.63;;;19.10;42.34
55171;BME280;41060;47.510;8.680;2023-05-12T10:08:53;96710.38;;;19.29;41.56
55171;BME280;41060;47.510;8.680;2023-05-12T10:11:23;96717.91;;;19.48;40.53
55171;BME280;41060;47.510;8.680;2023-05-12T10:13:51;96717.97;;;19.40;39.52
55171;BME280;41060;47.510;8.680;2023-05-12T10:16:20;96712.91;;;19.16;41.48
55171;BME280;41060;47.510;8.680;2023-05-12T10:18:48;96718.34;;;19.37;41.34
55171;BME280;41060;47.510;8.680;2023-05-12T10:21:17;96710.94;;;19.39;40.78
55171;BME280;41060;47.510;8.680;2023-05-12T10:23:44;96722.44;;;19.04;39.97
55171;BME280;41060;47.510;8.680;2023-05-12T10:26:13;96715.72;;;18.70;41.24
55171;BME280;41060;47.510;8.680;2023-05-12T10:28:41;96718.59;;;18.69;41.85
55171;BME280;41060;47.510;8.680;2023-05-12T10:31:09;96713.19;;;18.54;42.61
55171;BME280;41060;47.510;8.680;2023-05-12T10:33:38;96712.34;;;18.54;41.25
55171;BME280;41060;47.510;8.680;2023-05-12T10:36:15;96712.88;;;18.26;41.56
55171;BME280;41060;47.510;8.680;2023-05-12T10:38:42;96703.13;;;18.33;41.84
55171;BME280;41060;47.510;8.680;2023-05-12T10:41:09;96706.56;;;18.42;42.33
55171;BME280;41060;47.510;8.680;2023-05-12T10:43:38;96715.66;;;18.56;42.60
55171;BME280;41060;47.510;8.680;2023-05-12T10:46:08;96692.34;;;18.41;41.40
55171;BME280;41060;47.510;8.680;2023-05-12T10:48:35;96703.53;;;18.45;42.53
55171;BME280;41060;47.510;8.680;2023-05-12T10:51:07;96695.78;;;18.88;41.29
55171;BME280;41060;47.510;8.680;2023-05-12T10:53:37;96696.88;;;19.23;40.53
55171;BME280;41060;47.510;8.680;2023-05-12T10:56:07;96698.44;;;19.61;40.57
55171;BME280;41060;47.510;8.680;2023-05-12T10:58:33;96705.38;;;19.41;37.98
55171;BME280;41060;47.510;8.680;2023-05-12T11:01:03;96704.56;;;19.26;39.51
55171;BME280;41060;47.510;8.680;2023-05-12T11:03:32;96702.88;;;19.39;39.69
55171;BME280;41060;47.510;8.680;2023-05-12T11:05:59;96697.53;;;19.54;39.52
55171;BME280;41060;47.510;8.680;2023-05-12T11:08:29;96703.47;;;19.49;38.91
55171;BME280;41060;47.510;8.680;2023-05-12T11:10:59;96698.41;;;19.76;37.96
55171;BME280;41060;47.510;8.680;2023-05-12T11:13:27;96700.41;;;19.88;37.02
55171;BME280;41060;47.510;8.680;2023-05-12T11:15:55;96681.88;;;19.58;35.34
55171;BME280;41060;47.510;8.680;2023-05-12T11:18:24;96706.88;;;19.43;36.09
55171;BME280;41060;47.510;8.680;2023-05-12T11:20:51;96704.91;;;19.67;36.16
55171;BME280;41060;47.510;8.680;2023-05-12T11:23:24;96703.91;;;19.89;35.68
55171;BME280;41060;47.510;8.680;2023-05-12T11:25:54;96696.84;;;20.03;35.53
55171;BME280;41060;47.510;8.680;2023-05-12T11:28:21;96697.94;;;20.08;34.97
55171;BME280;41060;47.510;8.680;2023-05-12T11:30:49;96694.00;;;20.11;34.06
55171;BME280;41060;47.510;8.680;2023-05-12T11:33:18;96687.81;;;20.10;34.56
55171;BME280;41060;47.510;8.680;2023-05-12T11:35:46;96686.66;;;20.19;34.93
55171;BME280;41060;47.510;8.680;2023-05-12T11:38:13;96686.44;;;20.36;34.86
55171;BME280;41060;47.510;8.680;2023-05-12T11:40:41;96694.78;;;20.47;35.28
55171;BME280;41060;47.510;8.680;2023-05-12T11:43:11;96686.66;;;20.62;34.39
55171;BME280;41060;47.510;8.680;2023-05-12T11:45:40;96681.13;;;20.70;34.18
55171;BME280;41060;47.510;8.680;2023-05-12T11:48:08;96686.94;;;20.73;34.61
55171;BME280;41060;47.510;8.680;2023-05-12T11:50:41;96684.31;;;20.80;33.99
55171;BME280;41060;47.510;8.680;2023-05-12T11:53:09;96683.63;;;20.71;33.60
55171;BME280;41060;47.510;8.680;2023-05-12T11:55:46;96689.03;;;20.78;33.92
55171;BME280;41060;47.510;8.680;2023-05-12T11:58:19;96679.16;;;20.57;33.83
55171;BME280;41060;47.510;8.680;2023-05-12T12:00:47;96679.47;;;20.69;33.51
55171;BME280;41060;47.510;8.680;2023-05-12T12:03:14;96673.31;;;20.75;33.84
55171;BME280;41060;47.510;8.680;2023-05-12T12:05:42;96685.81;;;20.89;33.87
55171;BME280;41060;47.510;8.680;2023-05-12T12:08:11;96667.22;;;20.94;33.97
55171;BME280;41060;47.510;8.680;2023-05-12T12:10:39;96690.50;;;21.08;33.67
55171;BME280;41060;47.510;8.680;2023-05-12T12:13:08;96678.47;;;20.98;34.05
55171;BME280;41060;47.510;8.680;2023-05-12T12:15:36;96683.03;;;20.76;33.29
55171;BME280;41060;47.510;8.680;2023-05-12T12:18:03;96668.31;;;20.72;33.90
55171;BME280;41060;47.510;8.680;2023-05-12T12:20:32;96680.13;;;20.78;34.30
55171;BME280;41060;47.510;8.680;2023-05-12T12:22:59;96669.97;;;20.73;34.20
55171;BME280;41060;47.510;8.680;2023-05-12T12:25:25;96683.94;;;20.83;34.66
55171;BME280;41060;47.510;8.680;2023-05-12T12:27:52;96680.59;;;20.81;34.23
55171;BME280;41060;47.510;8.680;2023-05-12T12:30:20;96686.56;;;20.27;36.03
55171;BME280;41060;47.510;8.680;2023-05-12T12:32:48;96674.97;;;20.27;34.16
55171;BME280;41060;47.510;8.680;2023-05-12T12:35:14;96674.75;;;20.50;32.46
55171;BME280;41060;47.510;8.680;2023-05-12T12:37:42;96659.34;;;20.65;33.85
55171;BME280;41060;47.510;8.680;2023-05-12T12:40:15;96671.50;;;20.82;33.95
55171;BME280;41060;47.510;8.680;2023-05-12T12:42:43;96670.47;;;21.11;31.13
55171;BME280;41060;47.510;8.680;2023-05-12T12:45:10;96668.75;;;21.03;31.59
55171;BME280;41060;47.510;8.680;2023-05-12T12:47:37;96661.53;;;20.76;31.07
55171;BME280;41060;47.510;8.680;2023-05-12T12:50:07;96668.81;;;20.82;32.26
55171;BME280;41060;47.510;8.680;2023-05-12T12:52:35;96661.28;;;21.40;33.28
55171;BME280;41060;47.510;8.680;2023-05-12T12:55:01;96659.16;;;21.76;31.31
55171;BME280;41060;47.510;8.680;2023-05-12T12:57:29;96653.19;;;21.88;30.92
55171;BME280;41060;47.510;8.680;2023-05-12T12:59:55;96643.91;;;22.16;31.08
55171;BME280;41060;47.510;8.680;2023-05-12T13:02:22;96648.03;;;22.25;30.91